x

Cape Elizabeth- 45nm Nw Of Aberdeen, Wa (46041) Wave Buoy

5:50pm - Tue 5th May 2015 All times are PDT. -7 hours from GMT.

  • Sig Wave height 7.5ft
  • Swell Direction
  • Peak Period 11s
  • Average Period 8s
  • Wind
    7mph, 9mph gusts
  • Sea Temp 53°f
  • Air Temp 50°f
  • Sea Pressure 1018.9mb
  • Cape Elizabeth- 45nm Nw Of Aberdeen, Wa
  • Cape Elizabeth- 45nm Nw Of Aberdeen, Wa

More Historic Weather Station data

Upgrade to MSW Pro to gain access to the past 30 days of data for over 8000 Wavebouys and Weather Stations around the globe.

Join Pro

Comparision Forecast

View Surf forecast
   
Tue 05/05 5:50pm 7.5ft 11s 8s 7 9 mph 1018.9mb 53f 50f
4:50pm 7ft 11s 8s 9 11 mph 1018.7mb 53f 51f
3:50pm 8ft 12s 8s 11 13 mph 1018.8mb 53f 52f
2:50pm 8.5ft 11s 8s 11 13 mph 1018.9mb 53f 51f
1:50pm 8ft 12s 8s 11 13 mph 1018.8mb 53f 51f
12:50pm 9ft 11s 8s 9 13 mph 1018.7mb 53f 52f
11:50am 8.5ft 12s 8s 9 13 mph 1018.6mb 53f 51f
10:50am 9ft 12s 8s 11 13 mph 1018mb 53f 51f
9:50am 10ft 12s 8s 9 13 mph 1017.6mb 53f 51f
8:50am 9.5ft 11s 8s 11 13 mph 1017mb 53f 51f
7:50am 10ft 11s 8s 11 13 mph 1016.5mb 53f 50f
6:50am 10ft 13s 9s 11 16 mph 1015.7mb 53f 51f
5:50am 9ft 12s 8s 11 16 mph 1015.3mb 53f 50f
4:50am 10ft 12s 8s 13 18 mph 1014.8mb 53f 49f
3:50am 9.5ft 11s 8s 16 20 mph 1014.5mb 53f 51f
2:50am 9ft 13s 8s 13 18 mph 1014.4mb 53f 50f
1:50am 9.5ft 14s 8s 20 27 mph 1014.6mb 53f 47f
12:50am 8ft 13s 8s 13 16 mph 1014.5mb 53f 51f
Mon 05/04 11:50pm 8.5ft 13s 8s 16 18 mph 1014.3mb 53f 50f
10:50pm 8.5ft 14s 8s 16 20 mph 1014.4mb 53f 52f
9:50pm 9ft 14s 8s 16 18 mph 1014.6mb 53f 52f
8:50pm 7ft 15s 7s 16 18 mph 1014.3mb 53f 53f
7:50pm 7ft 15s 7s 16 22 mph 1014.5mb 53f 53f
6:50pm 6.5ft 14s 7s 11 13 mph 1014.8mb 53f 53f
5:50pm 7ft 15s 8s 16 18 mph 1014.9mb 54f 52f
4:50pm 6ft 15s 8s 13 18 mph 1015mb 53f 52f
3:50pm 7ft 15s 8s 13 16 mph 1015.2mb 53f 50f
2:50pm 5ft 16s 6s 18 20 mph 1015.1mb 53f 51f
1:50pm 5ft 16s 7s 13 16 mph 1014.8mb 53f 50f
12:50pm 4ft 16s 6s 20 25 mph 1014.7mb 53f 51f
11:50am 4ft 16s 6s 16 22 mph 1014.5mb 53f 52f
10:50am 3.5ft 16s 6s 13 16 mph 1013.9mb 53f 52f
9:50am 3.5ft 17s 6s 11 13 mph 1013.9mb 53f 51f
8:50am 3.5ft 10s 6s 9 16 mph 1013.8mb 53f 51f
7:50am 4ft 17s 6s 9
mph
1013.7mb 53f 51f
6:50am 4ft 10s 6s 9 11 mph 1013.3mb 53f 51f
5:50am 4ft 9s 6s 7 11 mph 1013mb 53f 50f
4:50am 4ft 8s 6s 4 9 mph 1013mb 53f 50f
3:50am 4.5ft 9s 6s 7 9 mph 1013mb 52f 50f
2:50am 4.5ft 10s 6s 9 13 mph 1012.9mb 52f 50f
1:50am 5ft 9s 6s 9 13 mph 1012.8mb 53f 50f
12:50am 5ft 10s 6s 11 13 mph 1013mb 53f 50f
Sun 05/03 11:50pm 5.5ft 10s 6s 11 13 mph 1012.9mb 53f 51f
10:50pm 5ft 10s 6s 13
mph
1013mb 53f 51f
9:50pm 5ft 10s 6s 13 16 mph 1013.4mb 53f 51f
8:50pm 5.5ft 9s 6s 13 16 mph 1013.4mb 53f 51f
7:50pm 5.5ft 11s 6s 16 18 mph 1013.6mb 53f 51f
6:50pm 5.5ft 11s  -  16 18 mph 1014.1mb 53f 52f
5:50pm 5ft 11s 6s 16 18 mph 1014.3mb 53f 52f
4:50pm 5.5ft 11s 7s 16 18 mph 1014.6mb 53f 52f
3:50pm 6ft 11s 7s 16 18 mph 1015.3mb 53f 52f
2:50pm 6ft 9s 7s 13 16 mph 1015.8mb 54f 51f
1:50pm 6ft 11s 7s 11 13 mph 1016mb 54f 51f
12:50pm 6ft 11s 7s 7 9 mph 1016.5mb 54f 51f
11:50am 7.5ft 10s 7s 7 9 mph 1016.8mb 53f 51f
10:50am 7ft 11s 7s 7 9 mph 1016.8mb 53f 51f
9:50am 6ft 11s 7s  -  2 mph 1016.7mb 53f 51f
8:50am 7ft 11s 7s 4 7 mph 1016.6mb 52f 51f
7:50am 7ft 11s 7s 9 13 mph 1016.8mb 52f 51f
6:50am 7ft 11s 7s 11 13 mph 1016.5mb 52f 51f
5:50am 6ft 11s 7s 11 16 mph 1016.2mb 52f 51f
4:50am 6.5ft 11s 7s 13 16 mph 1016.2mb 52f 51f
3:50am 7ft 11s 7s 16 18 mph 1016.1mb 53f 51f
2:50am 6ft 11s 6s 16 18 mph 1016.3mb 53f 51f
1:50am 6.5ft 11s 6s 16 18 mph 1016.5mb 53f 51f
12:50am 8ft 11s 7s 18 20 mph 1016.5mb 53f 51f
Sat 05/02 11:50pm 8ft 12s 7s 18 20 mph 1016.6mb 53f 51f
10:50pm 8ft 12s 7s 20 22 mph 1016.6mb 53f 51f
9:50pm 7.5ft 12s 7s 20 25 mph 1016.8mb 53f 51f
8:50pm 8.5ft 11s 7s 20 25 mph 1016.6mb 53f 52f
7:50pm 8.5ft 11s 7s 18 22 mph 1016.9mb 53f 52f
6:50pm 8ft 11s 7s 20 22 mph 1017.2mb 53f 52f
5:50pm 8.5ft 11s 7s 20 22 mph 1017.7mb 53f 52f
4:50pm 7.5ft 11s 7s 18 22 mph 1017.8mb 53f 51f
3:50pm 7.5ft 11s 7s 16 20 mph 1018.4mb 52f 51f
2:50pm 7.5ft 11s 7s 16 18 mph 1018.8mb 52f 51f
1:50pm 7ft 10s 7s 16 18 mph 1019mb 52f 51f
12:50pm 6.5ft 8s 7s 13 16 mph 1019.2mb 52f 51f
11:50am 7ft 11s 7s 13 16 mph 1019.5mb 52f 51f
10:50am 8ft 8s 7s 11 13 mph 1019.4mb 52f 51f
9:50am 7ft 11s 7s 13 16 mph 1019.4mb 52f 51f
8:50am 8ft 11s 7s 13 16 mph 1019.1mb 52f 51f
7:50am 8.5ft 9s 7s 16 18 mph 1019mb 52f 51f
6:50am 8ft 8s 7s 16 18 mph 1018.8mb 52f 51f
5:50am 8ft 9s 7s 16 18 mph 1018.5mb 52f 51f
4:50am 7.5ft 9s 6s 16 20 mph 1018.3mb 53f 51f
3:50am 7.5ft 10s 6s 18 20 mph 1018.2mb 53f 51f
2:50am 7.5ft 9s 6s 18 20 mph 1018.4mb 53f 51f
1:50am 7.5ft 11s 6s 18 22 mph 1018.5mb 53f 51f